Time;durP1;ratioP1;P1;durP2;ratioP2;P2;SDS_P1;SDS_P2;PMS_P1;PMS_P2;Temp;Humidity;BMP_temperature;BMP_pressure;BME280_temperature;BME280_humidity;BME280_pressure;Samples;Min_cycle;Max_cycle;Signal;HPM_P1;HPM_P2
2021/10/15 00:01:28;;;;;;;0.00;0.00;;;7.00;73.10;;;;;;5075855;28;20137;-76
2021/10/15 00:03:53;;;;;;;0.00;0.00;;;7.00;73.10;;;;;;5076226;28;20044;-76
2021/10/15 00:06:19;;;;;;;0.00;0.00;;;7.00;73.20;;;;;;5076354;28;20094;-76
2021/10/15 00:08:45;;;;;;;0.00;0.00;;;6.90;73.20;;;;;;5075905;28;20028;-77
2021/10/15 00:11:10;;;;;;;0.00;0.00;;;6.90;73.30;;;;;;5057914;28;20449;-76
2021/10/15 00:13:36;;;;;;;0.00;0.00;;;6.90;73.40;;;;;;5075829;28;20043;-76
2021/10/15 00:16:02;;;;;;;0.00;0.00;;;6.90;73.50;;;;;;5075814;28;20029;-76
2021/10/15 00:18:28;;;;;;;0.00;0.00;;;6.80;73.50;;;;;;5075397;28;20029;-76
2021/10/15 00:20:54;;;;;;;0.00;0.00;;;6.80;73.60;;;;;;5075433;28;20031;-76
2021/10/15 00:23:19;;;;;;;0.00;0.00;;;6.70;73.70;;;;;;5075729;28;20024;-76
2021/10/15 00:25:45;;;;;;;0.00;0.00;;;6.70;73.80;;;;;;5075443;28;20484;-76
2021/10/15 00:28:11;;;;;;;0.00;0.00;;;6.70;73.90;;;;;;5058221;28;20491;-76
2021/10/15 00:30:37;;;;;;;0.00;0.00;;;6.70;73.90;;;;;;5075369;28;20025;-76
2021/10/15 00:33:02;;;;;;;0.00;0.00;;;6.70;74.00;;;;;;5075506;28;20032;-76
2021/10/15 00:35:28;;;;;;;0.00;0.00;;;6.70;74.00;;;;;;5076014;28;20097;-76
2021/10/15 00:37:54;;;;;;;0.00;0.00;;;6.60;74.10;;;;;;5074691;28;20112;-76
2021/10/15 00:40:20;;;;;;;0.00;0.00;;;6.60;74.20;;;;;;5057537;28;20460;-77
2021/10/15 00:42:47;;;;;;;0.00;0.00;;;6.60;74.20;;;;;;5075296;28;20052;-76
2021/10/15 00:45:13;;;;;;;0.00;0.00;;;6.60;74.30;;;;;;5075037;28;20051;-76
2021/10/15 00:47:39;;;;;;;0.00;0.00;;;6.60;74.30;;;;;;5075612;28;20504;-76
2021/10/15 00:50:06;;;;;;;0.00;0.00;;;6.60;74.40;;;;;;5075139;28;20031;-76
2021/10/15 00:52:33;;;;;;;0.00;0.00;;;6.60;74.50;;;;;;5066624;28;20048;-76
2021/10/15 00:54:59;;;;;;;0.00;0.00;;;6.50;74.50;;;;;;5054890;28;20036;-76
2021/10/15 00:57:25;;;;;;;0.00;0.00;;;6.50;74.50;;;;;;5037082;28;20384;-76
2021/10/15 00:59:51;;;;;;;0.00;0.00;;;6.50;74.60;;;;;;5054715;28;20036;-79
2021/10/15 01:02:18;;;;;;;0.00;0.00;;;6.50;74.70;;;;;;5055313;28;20457;-76
2021/10/15 01:04:44;;;;;;;0.00;0.00;;;6.50;74.70;;;;;;5054977;28;20065;-76
2021/10/15 01:07:09;;;;;;;0.00;0.00;;;6.50;74.80;;;;;;5054648;28;20401;-76
2021/10/15 01:09:36;;;;;;;0.00;0.00;;;6.50;74.80;;;;;;5054610;28;20492;-76
2021/10/15 01:12:03;;;;;;;0.00;0.00;;;6.50;74.90;;;;;;5055368;28;20060;-75
2021/10/15 01:14:30;;;;;;;0.00;0.00;;;6.50;75.00;;;;;;5037005;28;20029;-75
2021/10/15 01:17:00;;;;;;;0.00;0.00;;;6.50;75.00;;;;;;5054533;28;20530;-76
2021/10/15 01:19:25;;;;;;;0.00;0.00;;;6.50;75.00;;;;;;5054536;28;20021;-76
2021/10/15 01:21:51;;;;;;;0.00;0.00;;;6.40;75.00;;;;;;5036728;28;20035;-75
2021/10/15 01:24:18;;;;;;;0.00;0.00;;;6.40;75.10;;;;;;5054737;28;20492;-76
2021/10/15 01:26:44;;;;;;;0.00;0.00;;;6.40;75.10;;;;;;5054408;28;20487;-76
2021/10/15 01:29:11;;;;;;;0.00;0.00;;;6.40;75.20;;;;;;5054453;28;20021;-75
2021/10/15 01:31:38;;;;;;;0.00;0.00;;;6.30;75.20;;;;;;5036827;28;20032;-76
2021/10/15 01:34:04;;;;;;;0.00;0.00;;;6.40;75.30;;;;;;5036218;28;20033;-76
2021/10/15 01:36:29;;;;;;;0.00;0.00;;;6.30;75.30;;;;;;5054573;28;20107;-76
2021/10/15 01:38:55;;;;;;;0.00;0.00;;;6.30;75.40;;;;;;5054001;28;20526;-76
2021/10/15 01:41:21;;;;;;;0.00;0.00;;;6.30;75.40;;;;;;5054385;28;20025;-76
2021/10/15 01:43:47;;;;;;;0.00;0.00;;;6.30;75.60;;;;;;5054102;28;20029;-76
2021/10/15 01:46:13;;;;;;;0.00;0.00;;;6.30;75.70;;;;;;5054118;28;20052;-76
2021/10/15 01:48:39;;;;;;;0.00;0.00;;;6.20;75.70;;;;;;5053803;28;20025;-76
2021/10/15 01:51:05;;;;;;;0.00;0.00;;;6.20;75.70;;;;;;5034686;28;20032;-76
2021/10/15 01:53:31;;;;;;;0.00;0.00;;;6.20;75.80;;;;;;5053932;28;20209;-76
2021/10/15 01:55:56;;;;;;;0.00;0.00;;;6.20;75.80;;;;;;5054425;28;20021;-76
2021/10/15 01:58:22;;;;;;;0.00;0.00;;;6.20;75.90;;;;;;5036197;28;20476;-76
2021/10/15 02:00:48;;;;;;;0.00;0.00;;;6.10;76.00;;;;;;5053930;28;20021;-76
2021/10/15 02:03:15;;;;;;;0.00;0.00;;;6.10;76.00;;;;;;5035860;28;20594;-76
2021/10/15 02:05:41;;;;;;;0.00;0.00;;;6.10;76.00;;;;;;5053636;28;20389;-76
2021/10/15 02:08:07;;;;;;;0.00;0.00;;;6.10;76.10;;;;;;5053630;28;20028;-76
2021/10/15 02:10:33;;;;;;;0.00;0.00;;;6.10;76.10;;;;;;5053911;28;20063;-76
2021/10/15 02:12:58;;;;;;;0.00;0.00;;;6.00;76.20;;;;;;5046480;28;20028;-77
2021/10/15 02:15:24;;;;;;;0.00;0.00;;;6.00;76.20;;;;;;5040371;28;20033;-77
2021/10/15 02:17:50;;;;;;;0.00;0.00;;;6.00;76.30;;;;;;5041329;28;20029;-77
2021/10/15 02:20:17;;;;;;;0.00;0.00;;;6.00;76.40;;;;;;5043873;28;20029;-77
2021/10/15 02:22:45;;;;;;;0.10;0.00;;;5.90;76.50;;;;;;5043095;28;20518;-77
2021/10/15 02:25:13;;;;;;;0.00;0.00;;;5.90;76.60;;;;;;5041255;28;20065;-77
2021/10/15 02:27:39;;;;;;;0.00;0.00;;;5.90;76.70;;;;;;5024801;28;20096;-76
2021/10/15 02:30:07;;;;;;;0.00;0.00;;;5.80;76.80;;;;;;5043067;28;20025;-76
2021/10/15 02:32:33;;;;;;;0.00;0.00;;;5.80;77.00;;;;;;5040432;28;20041;-76
2021/10/15 02:34:59;;;;;;;0.00;0.00;;;5.80;77.10;;;;;;5023873;28;20067;-77
2021/10/15 02:37:25;;;;;;;0.00;0.00;;;5.70;77.10;;;;;;5041452;28;20028;-76
2021/10/15 02:39:50;;;;;;;0.10;0.10;;;5.70;77.90;;;;;;5043282;28;20036;-77
2021/10/15 02:42:16;;;;;;;0.00;0.00;;;5.70;77.30;;;;;;5007466;28;20029;-77
2021/10/15 02:44:43;;;;;;;0.00;0.00;;;5.70;78.00;;;;;;5041851;28;20025;-77
2021/10/15 02:47:08;;;;;;;0.00;0.00;;;5.70;77.50;;;;;;5043365;28;20072;-77
2021/10/15 02:49:34;;;;;;;0.00;0.00;;;5.70;77.60;;;;;;5043099;28;20067;-76
2021/10/15 02:52:00;;;;;;;0.00;0.00;;;5.70;77.60;;;;;;5041730;28;20386;-75
2021/10/15 02:54:26;;;;;;;0.00;0.00;;;5.60;77.70;;;;;;5041156;28;20492;-75
2021/10/15 02:56:51;;;;;;;0.00;0.00;;;5.60;77.90;;;;;;5025570;28;20359;-77
2021/10/15 02:59:17;;;;;;;0.00;0.00;;;5.60;77.90;;;;;;5042917;28;20024;-81
2021/10/15 03:01:43;;;;;;;0.00;0.00;;;5.60;78.00;;;;;;5043777;28;20018;-77
2021/10/15 03:04:09;;;;;;;0.00;0.00;;;5.60;78.00;;;;;;5047329;28;20036;-75
2021/10/15 03:06:35;;;;;;;0.00;0.00;;;5.60;78.00;;;;;;5029385;28;20462;-76
2021/10/15 03:09:02;;;;;;;0.00;0.00;;;5.60;78.10;;;;;;5027059;28;20117;-76
2021/10/15 03:11:28;;;;;;;0.00;0.00;;;5.60;78.20;;;;;;5045006;28;20025;-77
2021/10/15 03:13:53;;;;;;;0.00;0.00;;;5.60;78.10;;;;;;5046309;28;20028;-76
2021/10/15 03:16:19;;;;;;;0.00;0.00;;;5.60;78.20;;;;;;5045287;28;20449;-77
2021/10/15 03:18:45;;;;;;;0.00;0.00;;;5.60;78.20;;;;;;5044904;28;20024;-76
2021/10/15 03:21:10;;;;;;;0.00;0.00;;;5.60;78.40;;;;;;5046505;28;20078;-77
2021/10/15 03:23:36;;;;;;;0.00;0.00;;;5.60;78.40;;;;;;5044578;28;20041;-75
2021/10/15 03:26:02;;;;;;;0.00;0.00;;;5.60;78.40;;;;;;5027385;28;20025;-75
2021/10/15 03:28:28;;;;;;;0.00;0.00;;;5.60;78.40;;;;;;5046263;28;20037;-76
2021/10/15 03:30:54;;;;;;;0.00;0.00;;;5.50;78.40;;;;;;5026551;28;20076;-75
2021/10/15 03:33:19;;;;;;;0.00;0.00;;;5.50;78.40;;;;;;5045336;28;20025;-76
2021/10/15 03:35:45;;;;;;;0.00;0.00;;;5.50;78.50;;;;;;5028283;28;20049;-76
2021/10/15 03:38:11;;;;;;;0.00;0.00;;;5.50;78.50;;;;;;5026258;28;20053;-75
2021/10/15 03:40:36;;;;;;;0.00;0.00;;;5.50;78.50;;;;;;5046220;28;20029;-75
2021/10/15 03:43:03;;;;;;;0.00;0.00;;;5.50;78.60;;;;;;5045013;28;20453;-76
2021/10/15 03:45:29;;;;;;;0.00;0.00;;;5.40;78.60;;;;;;5026501;28;20033;-77
2021/10/15 03:47:54;;;;;;;0.00;0.00;;;5.40;78.70;;;;;;5028119;28;20044;-76
2021/10/15 03:50:21;;;;;;;0.00;0.00;;;5.40;78.80;;;;;;5044179;28;20104;-75
2021/10/15 03:52:46;;;;;;;0.00;0.00;;;5.40;78.90;;;;;;5046621;28;20033;-75
2021/10/15 03:55:13;;;;;;;0.00;0.00;;;5.30;78.90;;;;;;5043451;28;20381;-76
2021/10/15 03:57:39;;;;;;;0.00;0.00;;;5.30;79.00;;;;;;5046503;28;20057;-77
2021/10/15 04:00:07;;;;;;;0.00;0.00;;;5.30;79.10;;;;;;5044734;28;20043;-77
2021/10/15 04:02:41;;;;;;;0.00;0.00;;;5.30;79.10;;;;;;5045859;28;20021;-77
2021/10/15 04:05:08;;;;;;;0.00;0.00;;;5.30;79.10;;;;;;5045480;28;20041;-75
2021/10/15 04:07:34;;;;;;;0.13;0.00;;;5.30;79.10;;;;;;5043469;28;20021;-76
2021/10/15 04:10:00;;;;;;;0.00;0.00;;;5.30;79.10;;;;;;5044419;28;20040;-76
2021/10/15 04:12:26;;;;;;;0.00;0.00;;;5.40;79.20;;;;;;5044610;28;20017;-76
2021/10/15 04:14:51;;;;;;;0.00;0.00;;;5.30;79.10;;;;;;5028569;28;20029;-75
2021/10/15 04:17:17;;;;;;;0.00;0.00;;;5.30;79.30;;;;;;5028946;28;20108;-77
2021/10/15 04:19:43;;;;;;;0.00;0.00;;;5.30;79.30;;;;;;5044793;28;20448;-76
2021/10/15 04:22:11;;;;;;;0.00;0.00;;;5.30;79.30;;;;;;5045753;28;20391;-77
2021/10/15 04:24:38;;;;;;;0.00;0.00;;;5.30;79.30;;;;;;5055003;28;20037;-77
2021/10/15 04:27:04;;;;;;;0.00;0.00;;;5.30;79.40;;;;;;5028925;28;20037;-77
2021/10/15 04:29:30;;;;;;;0.00;0.00;;;5.30;79.40;;;;;;5049099;28;20488;-77
2021/10/15 04:31:55;;;;;;;0.00;0.00;;;5.30;79.50;;;;;;5018062;28;20482;-77
2021/10/15 04:34:21;;;;;;;0.00;0.00;;;5.30;79.60;;;;;;5037584;28;20045;-77
2021/10/15 04:36:47;;;;;;;0.00;0.00;;;5.30;79.70;;;;;;5042547;28;20754;-76
2021/10/15 04:39:13;;;;;;;0.00;0.00;;;5.30;79.70;;;;;;5041233;28;20018;-77
2021/10/15 04:41:38;;;;;;;0.00;0.00;;;5.40;79.80;;;;;;5043349;28;20025;-77
2021/10/15 04:44:04;;;;;;;0.00;0.00;;;5.40;79.80;;;;;;5040020;28;20485;-77
2021/10/15 04:46:30;;;;;;;0.00;0.00;;;5.40;79.70;;;;;;5048284;28;20035;-78
2021/10/15 04:48:56;;;;;;;0.00;0.00;;;5.50;79.70;;;;;;5051794;28;20524;-77
2021/10/15 04:51:22;;;;;;;0.00;0.00;;;5.50;79.70;;;;;;5046291;28;20512;-77
2021/10/15 04:53:48;;;;;;;0.00;0.00;;;5.50;79.70;;;;;;5046003;28;20036;-78
2021/10/15 04:56:14;;;;;;;0.00;0.00;;;5.50;79.60;;;;;;5043207;28;20029;-77
2021/10/15 04:58:39;;;;;;;0.00;0.00;;;5.60;79.60;;;;;;5042384;28;20022;-78
2021/10/15 05:01:05;;;;;;;0.00;0.00;;;5.60;79.60;;;;;;5042880;28;20029;-77
2021/10/15 05:03:31;;;;;;;0.00;0.00;;;5.70;79.60;;;;;;5042509;28;20037;-76
2021/10/15 05:05:57;;;;;;;0.00;0.00;;;5.60;79.50;;;;;;5044904;28;20025;-76
2021/10/15 05:08:28;;;;;;;0.10;0.00;;;5.70;79.50;;;;;;5024136;28;20029;-77
2021/10/15 05:10:54;;;;;;;0.00;0.00;;;5.70;79.60;;;;;;5042407;28;20032;-77
2021/10/15 05:13:21;;;;;;;0.00;0.00;;;5.80;79.60;;;;;;5034170;28;20037;-76
2021/10/15 05:15:47;;;;;;;0.00;0.00;;;5.80;79.60;;;;;;5034618;28;20489;-75
2021/10/15 05:18:14;;;;;;;0.00;0.00;;;5.90;79.70;;;;;;5034273;28;20048;-76
2021/10/15 05:20:44;;;;;;;0.05;0.05;;;5.90;79.70;;;;;;5044068;28;20496;-76
2021/10/15 05:23:10;;;;;;;0.00;0.00;;;6.00;79.70;;;;;;5042980;28;20030;-76
2021/10/15 05:25:37;;;;;;;0.00;0.00;;;6.10;79.50;;;;;;5043386;28;20091;-76
2021/10/15 05:28:04;;;;;;;0.00;0.00;;;6.20;79.30;;;;;;5045362;28;20457;-76
2021/10/15 05:30:30;;;;;;;0.00;0.00;;;6.20;79.10;;;;;;5026900;28;20017;-76
2021/10/15 05:32:57;;;;;;;0.00;0.00;;;6.30;79.00;;;;;;5044177;28;20075;-75
2021/10/15 05:35:22;;;;;;;0.00;0.00;;;6.30;78.90;;;;;;5024946;28;20046;-78
2021/10/15 05:37:48;;;;;;;0.00;0.00;;;6.40;79.00;;;;;;5045530;28;20028;-76
2021/10/15 05:40:15;;;;;;;0.00;0.00;;;6.40;78.80;;;;;;5045052;28;20057;-77
2021/10/15 05:42:48;;;;;;;0.00;0.00;;;6.50;78.70;;;;;;5042565;28;20456;-78
2021/10/15 05:45:15;;;;;;;0.00;0.00;;;6.50;78.60;;;;;;5041910;28;20037;-76
2021/10/15 05:47:41;;;;;;;0.00;0.00;;;6.60;78.60;;;;;;5026831;28;20393;-76
2021/10/15 05:50:09;;;;;;;0.00;0.00;;;6.60;78.40;;;;;;5024629;28;20018;-77
2021/10/15 05:52:41;;;;;;;0.00;0.00;;;6.70;78.40;;;;;;5054022;28;20049;-76
2021/10/15 06:00:25;;;;;;;0.00;0.00;;;7.00;78.40;;;;;;5049850;28;20043;-78
2021/10/15 06:02:52;;;;;;;0.00;0.00;;;7.10;78.20;;;;;;5051471;28;20475;-76
2021/10/15 06:09:38;;;;;;;0.00;0.00;;;7.20;77.70;;;;;;5050611;28;20473;-77
2021/10/15 06:16:04;;;;;;;0.00;0.00;;;7.40;77.50;;;;;;5033586;28;20076;-78
2021/10/15 06:18:37;;;;;;;0.00;0.00;;;7.50;77.30;;;;;;5015987;28;20025;-76
2021/10/15 06:21:03;;;;;;;0.00;0.00;;;7.50;77.20;;;;;;5037083;28;20032;-77
2021/10/15 06:23:30;;;;;;;0.00;0.00;;;7.60;77.20;;;;;;5052961;28;20341;-75
2021/10/15 06:25:57;;;;;;;0.00;0.00;;;7.70;77.20;;;;;;5053496;28;20024;-76
2021/10/15 06:28:23;;;;;;;0.00;0.00;;;7.80;77.20;;;;;;5053432;28;20033;-76
2021/10/15 06:30:49;;;;;;;0.00;0.00;;;7.90;77.20;;;;;;5024209;28;20095;-76
2021/10/15 06:33:15;;;;;;;0.00;0.00;;;8.10;77.20;;;;;;5033159;28;20083;-77
2021/10/15 06:35:44;;;;;;;0.00;0.00;;;8.20;77.10;;;;;;5031078;28;20034;-85
2021/10/15 06:38:11;;;;;;;0.00;0.00;;;8.40;76.90;;;;;;5033254;28;20028;-76
2021/10/15 06:40:38;;;;;;;0.00;0.00;;;8.50;76.70;;;;;;5038094;28;20056;-76
2021/10/15 06:43:05;;;;;;;0.00;0.00;;;8.60;76.40;;;;;;5041012;28;20060;-77
2021/10/15 06:45:31;;;;;;;0.00;0.00;;;8.70;76.30;;;;;;5041282;28;20454;-77
2021/10/15 06:47:57;;;;;;;0.00;0.00;;;8.90;76.20;;;;;;5042763;28;20100;-75
2021/10/15 06:50:23;;;;;;;0.00;0.00;;;9.00;75.90;;;;;;5052848;28;20029;-76
2021/10/15 06:52:49;;;;;;;0.00;0.00;;;9.20;75.70;;;;;;5053312;28;20032;-76
2021/10/15 06:55:17;;;;;;;0.00;0.00;;;9.30;75.50;;;;;;5029006;28;20120;-76
2021/10/15 06:57:44;;;;;;;0.00;0.00;;;9.40;75.30;;;;;;5042272;28;20036;-77
2021/10/15 07:00:12;;;;;;;0.05;0.05;;;9.60;75.10;;;;;;5023696;28;20026;-75
2021/10/15 07:02:38;;;;;;;0.00;0.00;;;9.70;74.70;;;;;;5048884;28;20464;-78
2021/10/15 07:05:05;;;;;;;0.00;0.00;;;9.90;74.30;;;;;;5052608;28;20033;-80
2021/10/15 07:07:31;;;;;;;0.00;0.00;;;10.10;74.80;;;;;;5038822;28;20065;-78
2021/10/15 07:09:59;;;;;;;0.00;0.00;;;10.30;73.80;;;;;;5015740;28;20056;-78
2021/10/15 07:12:44;;;;;;;0.00;0.00;;;10.50;73.40;;;;;;5015373;28;20021;-78
2021/10/15 07:15:52;;;;;;;0.00;0.00;;;10.70;72.90;;;;;;5016109;28;20037;-78
2021/10/15 07:18:19;;;;;;;0.00;0.00;;;11.00;72.20;;;;;;5042955;28;20044;-77
2021/10/15 07:20:45;;;;;;;0.00;0.00;;;11.20;71.60;;;;;;5046717;28;20018;-78
2021/10/15 07:23:13;;;;;;;0.00;0.00;;;11.40;71.10;;;;;;5031044;28;20029;-78
2021/10/15 07:25:40;;;;;;;0.00;0.00;;;11.70;70.50;;;;;;5032846;28;20036;-77
2021/10/15 07:28:07;;;;;;;0.00;0.00;;;11.90;69.80;;;;;;5015483;28;20056;-79
2021/10/15 07:30:33;;;;;;;0.00;0.00;;;12.20;69.30;;;;;;5015379;28;20116;-78
2021/10/15 07:32:58;;;;;;;0.00;0.00;;;12.40;68.80;;;;;;5015176;28;20100;-80
2021/10/15 07:35:24;;;;;;;0.00;0.00;;;12.60;68.00;;;;;;5033038;28;20056;-79
2021/10/15 07:37:57;;;;;;;0.00;0.00;;;12.80;67.10;;;;;;5020016;28;20021;-79
2021/10/15 07:40:23;;;;;;;0.00;0.00;;;13.00;66.10;;;;;;5027529;28;20048;-81
2021/10/15 07:42:49;;;;;;;0.00;0.00;;;13.20;65.30;;;;;;5041561;28;20096;-78
2021/10/15 07:45:15;;;;;;;0.00;0.00;;;13.30;64.80;;;;;;5030004;28;20120;-81
2021/10/15 07:47:45;;;;;;;0.00;0.00;;;13.50;64.50;;;;;;5039044;28;20160;-78
2021/10/15 07:50:12;;;;;;;0.00;0.00;;;13.90;63.80;;;;;;5048041;28;20045;-78
2021/10/15 07:52:41;;;;;;;0.00;0.00;;;14.20;63.20;;;;;;5044975;28;20466;-78
2021/10/15 07:55:09;;;;;;;0.00;0.00;;;14.60;62.80;;;;;;5043999;28;20112;-77
2021/10/15 07:57:35;;;;;;;0.00;0.00;;;15.10;62.10;;;;;;5026181;28;20018;-78
2021/10/15 08:00:01;;;;;;;0.00;0.00;;;15.70;61.70;;;;;;5036297;28;20112;-80
2021/10/15 08:02:29;;;;;;;0.00;0.00;;;16.40;60.70;;;;;;5032610;28;20025;-80
2021/10/15 08:04:54;;;;;;;0.00;0.00;;;17.20;58.40;;;;;;5041596;28;20036;-78
2021/10/15 08:07:21;;;;;;;0.00;0.00;;;17.90;56.40;;;;;;5028468;28;20028;-80
2021/10/15 08:09:47;;;;;;;0.00;0.00;;;18.60;53.50;;;;;;5036217;28;20033;-80
2021/10/15 08:12:13;;;;;;;0.00;0.00;;;19.20;51.40;;;;;;5043275;28;20071;-79
2021/10/15 08:14:39;;;;;;;0.00;0.00;;;19.90;49.80;;;;;;5052056;28;20030;-77
2021/10/15 08:17:04;;;;;;;0.00;0.00;;;20.50;48.20;;;;;;5040440;28;20051;-78
2021/10/15 08:19:30;;;;;;;0.00;0.00;;;21.10;47.20;;;;;;5017789;28;20470;-78
2021/10/15 08:21:57;;;;;;;0.00;0.00;;;21.60;46.00;;;;;;5035505;28;20060;-77
2021/10/15 08:24:24;;;;;;;0.00;0.00;;;21.90;44.40;;;;;;5035412;28;20117;-76
2021/10/15 08:26:50;;;;;;;0.00;0.00;;;22.30;44.00;;;;;;5035998;28;20029;-77
2021/10/15 08:29:17;;;;;;;0.00;0.00;;;22.80;43.20;;;;;;5052955;28;20061;-78
2021/10/15 08:31:43;;;;;;;0.00;0.00;;;23.30;41.90;;;;;;5055693;28;20384;-77
2021/10/15 08:34:10;;;;;;;0.00;0.00;;;23.80;41.40;;;;;;5053869;28;20044;-77
2021/10/15 08:36:38;;;;;;;0.00;0.00;;;24.30;40.70;;;;;;5057361;28;20021;-77
2021/10/15 08:39:11;;;;;;;0.00;0.00;;;24.70;39.30;;;;;;5075618;28;20413;-78
2021/10/15 08:41:37;;;;;;;0.00;0.00;;;25.10;38.40;;;;;;5075249;28;20039;-77
2021/10/15 08:44:04;;;;;;;0.00;0.00;;;25.50;38.20;;;;;;5075061;28;20045;-77
2021/10/15 08:46:36;;;;;;;0.00;0.00;;;25.80;37.70;;;;;;5057338;28;20036;-77
2021/10/15 08:49:04;;;;;;;0.00;0.00;;;26.00;36.90;;;;;;5056691;28;20049;-78
2021/10/15 08:51:37;;;;;;;0.00;0.00;;;26.30;36.60;;;;;;5055288;28;20076;-78
2021/10/15 08:54:05;;;;;;;0.00;0.00;;;26.60;35.80;;;;;;5055778;28;20039;-77
2021/10/15 08:56:31;;;;;;;0.00;0.00;;;26.90;35.80;;;;;;5054911;28;20021;-77
2021/10/15 08:59:03;;;;;;;0.00;0.00;;;27.20;35.50;;;;;;5041733;28;20022;-74
2021/10/15 09:01:42;;;;;;;0.00;0.00;;;27.40;35.20;;;;;;5018620;28;20033;-77
2021/10/15 09:04:11;;;;;;;0.00;0.00;;;27.70;34.50;;;;;;5035624;28;20030;-85
2021/10/15 09:06:39;;;;;;;0.00;0.00;;;27.90;34.70;;;;;;5035689;28;20034;-77
2021/10/15 09:09:07;;;;;;;0.00;0.00;;;28.10;34.00;;;;;;5036023;28;20081;-78
2021/10/15 09:11:34;;;;;;;0.00;0.00;;;28.10;33.70;;;;;;5034406;28;20033;-76
2021/10/15 09:14:05;;;;;;;0.00;0.00;;;28.30;33.80;;;;;;5034748;28;20040;-77
2021/10/15 09:16:50;;;;;;;0.00;0.00;;;28.70;32.50;;;;;;5035027;28;20037;-77
2021/10/15 09:19:24;;;;;;;0.00;0.00;;;28.80;32.20;;;;;;5016888;28;20022;-78
2021/10/15 09:22:10;;;;;;;0.00;0.00;;;29.20;32.30;;;;;;5037841;28;20032;-76
2021/10/15 09:24:49;;;;;;;0.00;0.00;;;29.70;32.50;;;;;;5044647;28;20044;-78
2021/10/15 09:27:32;;;;;;;0.00;0.00;;;30.00;32.10;;;;;;5045384;28;20029;-77
2021/10/15 09:30:05;;;;;;;0.00;0.00;;;30.30;31.50;;;;;;5045430;28;20090;-78
2021/10/15 09:32:40;;;;;;;0.00;0.00;;;30.60;31.30;;;;;;5043213;28;20033;-78
2021/10/15 09:35:09;;;;;;;0.00;0.00;;;30.90;31.10;;;;;;5054772;28;20068;-78
2021/10/15 09:37:38;;;;;;;0.00;0.00;;;31.40;31.40;;;;;;5054892;28;20088;-80
2021/10/15 09:40:16;;;;;;;0.00;0.00;;;31.60;30.50;;;;;;5054192;28;20032;-79
2021/10/15 09:42:47;;;;;;;0.00;0.00;;;31.80;30.30;;;;;;5054575;28;20060;-77
2021/10/15 09:45:16;;;;;;;0.00;0.00;;;32.10;30.30;;;;;;5053952;28;20492;-78
2021/10/15 09:47:42;;;;;;;0.00;0.00;;;32.30;29.90;;;;;;5054160;28;20537;-78
2021/10/15 09:50:09;;;;;;;0.00;0.00;;;32.50;29.40;;;;;;5036392;28;20373;-78
2021/10/15 09:52:46;;;;;;;0.00;0.00;;;32.60;29.10;;;;;;5054071;28;20029;-78
2021/10/15 09:55:31;;;;;;;0.00;0.00;;;32.60;28.50;;;;;;5049221;28;20040;-77
2021/10/15 09:58:11;;;;;;;0.00;0.00;;;32.60;28.30;;;;;;5061575;28;20098;-76
2021/10/15 10:00:37;;;;;;;0.00;0.00;;;32.60;28.30;;;;;;5054069;28;20036;-77
2021/10/15 10:03:04;;;;;;;0.00;0.00;;;32.60;27.90;;;;;;5016494;28;20060;-76
2021/10/15 10:05:31;;;;;;;0.00;0.00;;;32.50;27.70;;;;;;5034419;28;20101;-76
2021/10/15 10:07:58;;;;;;;0.00;0.00;;;32.30;27.60;;;;;;5053069;28;20021;-76
2021/10/15 10:10:31;;;;;;;0.00;0.00;;;32.10;27.60;;;;;;5035270;28;20029;-76
2021/10/15 10:12:58;;;;;;;0.00;0.00;;;32.20;27.80;;;;;;5052731;28;20121;-77
2021/10/15 10:15:31;;;;;;;0.00;0.00;;;32.40;27.90;;;;;;5061915;28;20461;-75
2021/10/15 10:18:22;;;;;;;0.00;0.00;;;32.50;27.80;;;;;;5055576;28;20027;-77
2021/10/15 10:21:13;;;;;;;0.00;0.00;;;32.70;28.00;;;;;;5070246;28;20073;-78
2021/10/15 10:23:54;;;;;;;0.00;0.00;;;33.10;27.90;;;;;;5033961;28;20052;-77
2021/10/15 10:26:23;;;;;;;0.00;0.00;;;33.40;28.00;;;;;;5015720;28;20029;-76
2021/10/15 10:29:06;;;;;;;0.00;0.00;;;33.50;27.80;;;;;;5033415;28;20022;-75
2021/10/15 10:31:33;;;;;;;0.00;0.00;;;33.60;27.60;;;;;;5015428;28;20055;-77
2021/10/15 10:34:02;;;;;;;0.00;0.00;;;33.90;27.80;;;;;;5015389;28;20146;-75
2021/10/15 10:36:31;;;;;;;0.00;0.00;;;34.10;27.50;;;;;;5033213;28;20018;-76
2021/10/15 10:39:17;;;;;;;0.00;0.00;;;34.40;27.50;;;;;;5033192;28;20036;-76
2021/10/15 10:42:06;;;;;;;0.00;0.00;;;34.80;27.50;;;;;;5047724;28;20017;-78
2021/10/15 10:44:36;;;;;;;0.00;0.00;;;34.90;27.20;;;;;;5040770;28;20030;-78
2021/10/15 10:47:15;;;;;;;0.00;0.00;;;34.90;27.10;;;;;;5042045;28;20374;-77
2021/10/15 10:49:43;;;;;;;0.00;0.00;;;34.60;27.00;;;;;;5042829;28;20030;-77
2021/10/15 10:52:12;;;;;;;0.00;0.00;;;34.60;27.10;;;;;;5042173;28;20164;-79
2021/10/15 10:54:40;;;;;;;0.00;0.00;;;34.80;27.10;;;;;;5044913;28;20112;-79
2021/10/15 10:57:41;;;;;;;0.00;0.00;;;35.10;27.10;;;;;;5041999;28;20018;-78
2021/10/15 11:00:30;;;;;;;0.00;0.00;;;35.40;26.90;;;;;;5041395;28;20029;-80
2021/10/15 11:02:57;;;;;;;0.00;0.00;;;35.60;26.90;;;;;;5041315;28;20122;-78
2021/10/15 11:05:37;;;;;;;0.00;0.00;;;35.80;26.90;;;;;;5052521;28;20045;-76
2021/10/15 11:08:31;;;;;;;0.00;0.00;;;35.80;26.70;;;;;;5041877;28;20029;-79
2021/10/15 11:14:43;;;;;;;0.00;0.00;;;35.80;26.60;;;;;;5043400;28;20032;-80
2021/10/15 11:17:11;;;;;;;0.00;0.00;;;35.80;26.40;;;;;;5054597;28;20439;-78
2021/10/15 11:19:36;;;;;;;0.00;0.00;;;35.80;26.30;;;;;;5036927;28;20041;-76
2021/10/15 11:22:03;;;;;;;0.00;0.00;;;35.90;26.40;;;;;;5033662;28;20026;-76
2021/10/15 11:24:28;;;;;;;0.00;0.00;;;35.80;26.30;;;;;;5038895;28;20044;-79
2021/10/15 11:26:55;;;;;;;0.00;0.00;;;35.90;26.20;;;;;;5056634;28;20025;-76
2021/10/15 11:29:22;;;;;;;0.00;0.00;;;35.80;26.10;;;;;;5048073;28;20021;-76
2021/10/15 11:31:59;;;;;;;0.00;0.00;;;35.60;26.00;;;;;;5053429;28;20369;-76
2021/10/15 11:34:25;;;;;;;0.00;0.00;;;35.50;26.10;;;;;;5027801;28;20112;-77
2021/10/15 11:37:40;;;;;;;0.00;0.00;;;35.50;26.20;;;;;;5050075;28;20178;-79
2021/10/15 11:40:36;;;;;;;0.00;0.00;;;35.70;26.10;;;;;;5039279;28;20469;-76
2021/10/15 11:43:08;;;;;;;0.00;0.00;;;35.70;26.10;;;;;;5057531;28;20078;-76
2021/10/15 11:45:37;;;;;;;0.00;0.00;;;35.70;26.10;;;;;;5038853;28;20398;-77
2021/10/15 11:48:05;;;;;;;0.00;0.00;;;35.70;26.00;;;;;;5056680;28;20025;-74
2021/10/15 11:50:35;;;;;;;0.00;0.00;;;35.70;26.00;;;;;;5022263;28;20044;-76
2021/10/15 11:53:02;;;;;;;0.00;0.00;;;35.70;26.00;;;;;;5038949;28;20032;-76
2021/10/15 11:55:36;;;;;;;0.00;0.00;;;35.80;25.90;;;;;;5056405;28;20073;-77
2021/10/15 11:58:21;;;;;;;0.00;0.00;;;35.90;25.70;;;;;;5056306;28;20112;-76
2021/10/15 12:01:08;;;;;;;0.00;0.00;;;35.50;25.40;;;;;;5055788;28;20032;-76
2021/10/15 12:03:56;;;;;;;0.00;0.00;;;35.30;25.50;;;;;;5066205;28;20028;-77
2021/10/15 12:06:24;;;;;;;0.00;0.00;;;35.10;25.60;;;;;;5069344;28;20029;-75
2021/10/15 12:09:09;;;;;;;0.00;0.00;;;35.00;26.20;;;;;;5055341;28;20547;-78
2021/10/15 12:11:41;;;;;;;0.00;0.00;;;34.80;25.80;;;;;;5055620;28;20063;-77
2021/10/15 12:14:31;;;;;;;0.00;0.00;;;34.60;25.70;;;;;;5061954;28;20042;-77
2021/10/15 12:17:07;;;;;;;0.00;0.00;;;34.50;25.60;;;;;;5046128;28;20025;-77
2021/10/15 12:19:48;;;;;;;0.00;0.00;;;34.50;25.70;;;;;;5050622;28;20027;-76
2021/10/15 12:22:22;;;;;;;0.00;0.00;;;34.30;25.80;;;;;;5055689;28;20025;-77
2021/10/15 12:24:54;;;;;;;0.00;0.00;;;34.10;25.80;;;;;;5053196;28;20076;-77
2021/10/15 12:27:24;;;;;;;0.00;0.00;;;33.90;25.80;;;;;;5057529;28;20033;-77
2021/10/15 12:29:52;;;;;;;0.00;0.00;;;33.90;26.10;;;;;;5057731;28;20025;-76
2021/10/15 12:32:32;;;;;;;0.00;0.00;;;33.80;26.10;;;;;;5075309;28;20484;-80
2021/10/15 12:35:13;;;;;;;0.00;0.00;;;33.60;26.00;;;;;;5075057;28;20075;-77
2021/10/15 12:37:50;;;;;;;0.00;0.00;;;33.10;26.00;;;;;;5057558;28;20147;-76
2021/10/15 12:40:25;;;;;;;0.00;0.00;;;32.80;26.30;;;;;;5057691;28;20021;-77
2021/10/15 12:43:09;;;;;;;0.00;0.00;;;32.50;26.30;;;;;;5075546;28;20028;-77
2021/10/15 12:45:50;;;;;;;0.00;0.00;;;32.20;26.50;;;;;;5057272;28;20365;-76
2021/10/15 12:48:17;;;;;;;0.00;0.00;;;32.00;26.60;;;;;;5035375;28;20091;-76
2021/10/15 12:50:56;;;;;;;0.00;0.00;;;31.70;26.80;;;;;;5035108;28;20026;-77
2021/10/15 12:53:21;;;;;;;0.00;0.00;;;31.60;26.90;;;;;;5016365;28;20029;-77
2021/10/15 12:55:59;;;;;;;0.00;0.00;;;31.60;26.90;;;;;;5035233;28;20481;-76
2021/10/15 12:58:31;;;;;;;0.00;0.00;;;31.40;27.10;;;;;;5017256;28;20029;-76
2021/10/15 13:01:03;;;;;;;0.00;0.00;;;31.50;27.20;;;;;;5024955;28;20623;-77
2021/10/15 13:03:30;;;;;;;0.00;0.00;;;31.50;27.10;;;;;;5027406;28;20477;-75
2021/10/15 13:05:57;;;;;;;0.00;0.00;;;31.20;27.00;;;;;;5036933;28;20424;-72
2021/10/15 13:08:25;;;;;;;0.00;0.00;;;30.80;27.00;;;;;;5054172;28;20113;-71
2021/10/15 13:10:53;;;;;;;0.00;0.00;;;30.50;27.20;;;;;;5054442;28;20036;-71
2021/10/15 13:13:20;;;;;;;0.00;0.00;;;30.50;27.30;;;;;;5035509;28;20026;-72
2021/10/15 13:15:47;;;;;;;0.00;0.00;;;30.50;27.20;;;;;;5034499;28;20029;-71
2021/10/15 13:18:14;;;;;;;0.00;0.00;;;30.40;27.10;;;;;;5034664;28;20105;-70
2021/10/15 13:20:41;;;;;;;0.00;0.00;;;30.10;27.20;;;;;;5034721;28;20026;-70